sensor_id;sensor_type;location;lat;lon;timestamp;temperature;humidity
67899;DHT22;54699;51.796;10.956;2023-05-16T00:00:51;23.10;50.10
67899;DHT22;54699;51.796;10.956;2023-05-16T00:03:18;23.10;50.30
67899;DHT22;54699;51.796;10.956;2023-05-16T00:05:45;23.10;50.40
67899;DHT22;54699;51.796;10.956;2023-05-16T00:08:13;23.10;50.40
67899;DHT22;54699;51.796;10.956;2023-05-16T00:10:40;23.10;50.40
67899;DHT22;54699;51.796;10.956;2023-05-16T00:13:07;23.00;50.40
67899;DHT22;54699;51.796;10.956;2023-05-16T00:15:34;23.10;50.50
67899;DHT22;54699;51.796;10.956;2023-05-16T00:18:02;23.00;50.50
67899;DHT22;54699;51.796;10.956;2023-05-16T00:20:29;23.00;50.60
67899;DHT22;54699;51.796;10.956;2023-05-16T00:22:56;23.00;50.60
67899;DHT22;54699;51.796;10.956;2023-05-16T00:25:26;23.00;50.60
67899;DHT22;54699;51.796;10.956;2023-05-16T00:27:53;23.00;50.70
67899;DHT22;54699;51.796;10.956;2023-05-16T00:30:20;23.00;50.70
67899;DHT22;54699;51.796;10.956;2023-05-16T00:32:48;23.00;50.70
67899;DHT22;54699;51.796;10.956;2023-05-16T00:35:15;23.00;50.70
67899;DHT22;54699;51.796;10.956;2023-05-16T00:37:42;23.00;50.90
67899;DHT22;54699;51.796;10.956;2023-05-16T00:40:09;23.00;50.60
67899;DHT22;54699;51.796;10.956;2023-05-16T00:42:38;23.00;50.70
67899;DHT22;54699;51.796;10.956;2023-05-16T00:45:08;23.00;50.70
67899;DHT22;54699;51.796;10.956;2023-05-16T00:47:38;23.00;50.80
67899;DHT22;54699;51.796;10.956;2023-05-16T00:50:05;23.00;50.70
67899;DHT22;54699;51.796;10.956;2023-05-16T00:52:32;22.90;50.70
67899;DHT22;54699;51.796;10.956;2023-05-16T00:55:00;23.00;50.60
67899;DHT22;54699;51.796;10.956;2023-05-16T00:57:28;22.90;50.70
67899;DHT22;54699;51.796;10.956;2023-05-16T00:59:59;22.90;50.60
67899;DHT22;54699;51.796;10.956;2023-05-16T01:02:26;22.90;50.70
67899;DHT22;54699;51.796;10.956;2023-05-16T01:04:54;22.90;50.70
67899;DHT22;54699;51.796;10.956;2023-05-16T01:07:21;22.90;50.70
67899;DHT22;54699;51.796;10.956;2023-05-16T01:09:49;22.90;50.70
67899;DHT22;54699;51.796;10.956;2023-05-16T01:12:18;22.90;50.70
67899;DHT22;54699;51.796;10.956;2023-05-16T01:14:50;22.90;50.60
67899;DHT22;54699;51.796;10.956;2023-05-16T01:17:28;22.90;50.70
67899;DHT22;54699;51.796;10.956;2023-05-16T01:20:03;22.90;50.70
67899;DHT22;54699;51.796;10.956;2023-05-16T01:22:45;22.90;50.80
67899;DHT22;54699;51.796;10.956;2023-05-16T01:25:27;22.90;50.70
67899;DHT22;54699;51.796;10.956;2023-05-16T01:27:59;22.90;50.90
67899;DHT22;54699;51.796;10.956;2023-05-16T01:30:30;22.90;50.80
67899;DHT22;54699;51.796;10.956;2023-05-16T01:32:59;22.90;50.80
67899;DHT22;54699;51.796;10.956;2023-05-16T01:35:26;22.90;50.80
67899;DHT22;54699;51.796;10.956;2023-05-16T01:37:55;22.80;50.70
67899;DHT22;54699;51.796;10.956;2023-05-16T01:40:30;22.80;50.80
67899;DHT22;54699;51.796;10.956;2023-05-16T01:43:07;22.90;50.80
67899;DHT22;54699;51.796;10.956;2023-05-16T01:45:38;22.80;50.70
67899;DHT22;54699;51.796;10.956;2023-05-16T01:48:12;22.80;50.90
67899;DHT22;54699;51.796;10.956;2023-05-16T01:50:44;22.80;50.70
67899;DHT22;54699;51.796;10.956;2023-05-16T01:53:17;22.80;50.70
67899;DHT22;54699;51.796;10.956;2023-05-16T01:55:48;22.80;50.80
67899;DHT22;54699;51.796;10.956;2023-05-16T01:58:19;22.80;50.70
67899;DHT22;54699;51.796;10.956;2023-05-16T02:00:48;22.80;50.70
67899;DHT22;54699;51.796;10.956;2023-05-16T02:03:17;22.80;50.70
67899;DHT22;54699;51.796;10.956;2023-05-16T02:05:44;22.80;50.70
67899;DHT22;54699;51.796;10.956;2023-05-16T02:08:12;22.80;50.70
67899;DHT22;54699;51.796;10.956;2023-05-16T02:10:39;22.80;50.70
67899;DHT22;54699;51.796;10.956;2023-05-16T02:13:06;22.80;50.70
67899;DHT22;54699;51.796;10.956;2023-05-16T02:15:34;22.80;50.70
67899;DHT22;54699;51.796;10.956;2023-05-16T02:18:01;22.80;50.70
67899;DHT22;54699;51.796;10.956;2023-05-16T02:20:28;22.80;50.80
67899;DHT22;54699;51.796;10.956;2023-05-16T02:22:55;22.80;50.90
67899;DHT22;54699;51.796;10.956;2023-05-16T02:25:21;22.80;50.90
67899;DHT22;54699;51.796;10.956;2023-05-16T02:27:49;22.70;50.80
67899;DHT22;54699;51.796;10.956;2023-05-16T02:30:16;22.80;50.80
67899;DHT22;54699;51.796;10.956;2023-05-16T02:32:44;22.70;50.70
67899;DHT22;54699;51.796;10.956;2023-05-16T02:35:11;22.80;50.80
67899;DHT22;54699;51.796;10.956;2023-05-16T02:37:38;22.70;50.80
67899;DHT22;54699;51.796;10.956;2023-05-16T02:40:06;22.70;50.80
67899;DHT22;54699;51.796;10.956;2023-05-16T02:42:33;22.80;50.80
67899;DHT22;54699;51.796;10.956;2023-05-16T02:45:00;22.70;50.60
67899;DHT22;54699;51.796;10.956;2023-05-16T02:47:27;22.70;50.80
67899;DHT22;54699;51.796;10.956;2023-05-16T02:49:55;22.70;50.90
67899;DHT22;54699;51.796;10.956;2023-05-16T02:52:22;22.70;50.80
67899;DHT22;54699;51.796;10.956;2023-05-16T02:54:49;22.70;50.70
67899;DHT22;54699;51.796;10.956;2023-05-16T02:57:16;22.70;50.80
67899;DHT22;54699;51.796;10.956;2023-05-16T02:59:43;22.70;50.80
67899;DHT22;54699;51.796;10.956;2023-05-16T03:02:10;22.70;50.70
67899;DHT22;54699;51.796;10.956;2023-05-16T03:04:37;22.70;50.70
67899;DHT22;54699;51.796;10.956;2023-05-16T03:07:05;22.70;50.90
67899;DHT22;54699;51.796;10.956;2023-05-16T03:09:32;22.70;50.70
67899;DHT22;54699;51.796;10.956;2023-05-16T03:11:58;22.70;50.70
67899;DHT22;54699;51.796;10.956;2023-05-16T03:14:25;22.70;50.80
67899;DHT22;54699;51.796;10.956;2023-05-16T03:16:52;22.70;50.70
67899;DHT22;54699;51.796;10.956;2023-05-16T03:19:19;22.70;50.60
67899;DHT22;54699;51.796;10.956;2023-05-16T03:21:46;22.70;50.70
67899;DHT22;54699;51.796;10.956;2023-05-16T03:24:14;22.60;51.60
67899;DHT22;54699;51.796;10.956;2023-05-16T03:26:41;22.60;50.70
67899;DHT22;54699;51.796;10.956;2023-05-16T03:29:08;22.70;50.70
67899;DHT22;54699;51.796;10.956;2023-05-16T03:31:34;22.70;50.70
67899;DHT22;54699;51.796;10.956;2023-05-16T03:34:01;22.70;50.70
67899;DHT22;54699;51.796;10.956;2023-05-16T03:36:28;22.70;50.60
67899;DHT22;54699;51.796;10.956;2023-05-16T03:38:55;22.70;50.60
67899;DHT22;54699;51.796;10.956;2023-05-16T03:41:24;22.70;50.70
67899;DHT22;54699;51.796;10.956;2023-05-16T03:43:51;22.60;50.60
67899;DHT22;54699;51.796;10.956;2023-05-16T03:46:18;22.60;50.60
67899;DHT22;54699;51.796;10.956;2023-05-16T03:48:45;22.60;50.60
67899;DHT22;54699;51.796;10.956;2023-05-16T03:51:12;22.60;50.50
67899;DHT22;54699;51.796;10.956;2023-05-16T03:53:38;22.60;50.50
67899;DHT22;54699;51.796;10.956;2023-05-16T03:56:05;22.60;50.60
67899;DHT22;54699;51.796;10.956;2023-05-16T03:58:34;22.60;50.60
67899;DHT22;54699;51.796;10.956;2023-05-16T04:01:01;22.60;50.50
67899;DHT22;54699;51.796;10.956;2023-05-16T04:03:30;22.60;50.60
67899;DHT22;54699;51.796;10.956;2023-05-16T04:06:00;22.60;50.50
67899;DHT22;54699;51.796;10.956;2023-05-16T04:08:27;22.60;50.50
67899;DHT22;54699;51.796;10.956;2023-05-16T04:10:54;22.60;50.60
67899;DHT22;54699;51.796;10.956;2023-05-16T04:13:23;22.60;50.60
67899;DHT22;54699;51.796;10.956;2023-05-16T04:15:51;22.60;50.70
67899;DHT22;54699;51.796;10.956;2023-05-16T04:18:18;22.50;50.30
67899;DHT22;54699;51.796;10.956;2023-05-16T04:20:45;22.50;49.80
67899;DHT22;54699;51.796;10.956;2023-05-16T04:23:12;22.50;49.40
67899;DHT22;54699;51.796;10.956;2023-05-16T04:25:39;22.40;49.50
67899;DHT22;54699;51.796;10.956;2023-05-16T04:28:07;22.40;49.70
67899;DHT22;54699;51.796;10.956;2023-05-16T04:30:34;22.40;50.10
67899;DHT22;54699;51.796;10.956;2023-05-16T04:33:03;22.40;50.30
67899;DHT22;54699;51.796;10.956;2023-05-16T04:35:30;22.40;50.10
67899;DHT22;54699;51.796;10.956;2023-05-16T04:37:58;22.40;50.20
67899;DHT22;54699;51.796;10.956;2023-05-16T04:40:24;22.40;50.10
67899;DHT22;54699;51.796;10.956;2023-05-16T04:42:52;22.40;49.70
67899;DHT22;54699;51.796;10.956;2023-05-16T04:45:19;22.40;49.80
67899;DHT22;54699;51.796;10.956;2023-05-16T04:47:46;22.40;50.70
67899;DHT22;54699;51.796;10.956;2023-05-16T04:50:15;22.40;49.90
67899;DHT22;54699;51.796;10.956;2023-05-16T04:52:42;22.40;49.80
67899;DHT22;54699;51.796;10.956;2023-05-16T04:55:10;22.40;49.40
67899;DHT22;54699;51.796;10.956;2023-05-16T04:57:37;22.40;49.60
67899;DHT22;54699;51.796;10.956;2023-05-16T05:00:07;22.50;49.30
67899;DHT22;54699;51.796;10.956;2023-05-16T05:02:36;22.50;49.10
67899;DHT22;54699;51.796;10.956;2023-05-16T05:05:04;22.60;48.40
67899;DHT22;54699;51.796;10.956;2023-05-16T05:07:33;22.70;48.80
67899;DHT22;54699;51.796;10.956;2023-05-16T05:10:00;22.70;48.50
67899;DHT22;54699;51.796;10.956;2023-05-16T05:12:27;22.80;48.10
67899;DHT22;54699;51.796;10.956;2023-05-16T05:14:54;22.90;47.80
67899;DHT22;54699;51.796;10.956;2023-05-16T05:17:24;23.00;47.80
67899;DHT22;54699;51.796;10.956;2023-05-16T05:19:51;22.90;48.50
67899;DHT22;54699;51.796;10.956;2023-05-16T05:22:18;23.10;47.90
67899;DHT22;54699;51.796;10.956;2023-05-16T05:24:46;23.20;47.60
67899;DHT22;54699;51.796;10.956;2023-05-16T05:27:14;23.30;47.00
67899;DHT22;54699;51.796;10.956;2023-05-16T05:29:40;23.30;46.80
67899;DHT22;54699;51.796;10.956;2023-05-16T05:32:08;23.40;47.00
67899;DHT22;54699;51.796;10.956;2023-05-16T05:34:35;23.30;46.60
67899;DHT22;54699;51.796;10.956;2023-05-16T05:37:05;23.50;46.40
67899;DHT22;54699;51.796;10.956;2023-05-16T05:39:32;23.50;43.70
67899;DHT22;54699;51.796;10.956;2023-05-16T05:42:01;23.50;43.70
67899;DHT22;54699;51.796;10.956;2023-05-16T05:44:29;23.50;44.60
67899;DHT22;54699;51.796;10.956;2023-05-16T05:46:59;23.40;44.80
67899;DHT22;54699;51.796;10.956;2023-05-16T05:49:26;23.50;45.30
67899;DHT22;54699;51.796;10.956;2023-05-16T05:51:53;23.50;44.80
67899;DHT22;54699;51.796;10.956;2023-05-16T05:54:24;23.50;45.00
67899;DHT22;54699;51.796;10.956;2023-05-16T05:56:51;23.70;44.90
67899;DHT22;54699;51.796;10.956;2023-05-16T05:59:20;23.70;44.00
67899;DHT22;54699;51.796;10.956;2023-05-16T06:01:47;23.60;44.50
67899;DHT22;54699;51.796;10.956;2023-05-16T06:04:22;23.60;45.50
67899;DHT22;54699;51.796;10.956;2023-05-16T06:06:49;23.70;44.40
67899;DHT22;54699;51.796;10.956;2023-05-16T06:09:16;23.70;45.90
67899;DHT22;54699;51.796;10.956;2023-05-16T06:11:46;23.70;44.10
67899;DHT22;54699;51.796;10.956;2023-05-16T06:14:13;23.60;44.70
67899;DHT22;54699;51.796;10.956;2023-05-16T06:16:45;23.70;44.80
67899;DHT22;54699;51.796;10.956;2023-05-16T06:19:20;23.70;45.40
67899;DHT22;54699;51.796;10.956;2023-05-16T06:21:48;23.70;45.40
67899;DHT22;54699;51.796;10.956;2023-05-16T06:24:21;23.60;44.30
67899;DHT22;54699;51.796;10.956;2023-05-16T06:26:48;23.70;44.30
67899;DHT22;54699;51.796;10.956;2023-05-16T06:29:16;23.70;44.60
67899;DHT22;54699;51.796;10.956;2023-05-16T06:31:45;23.70;45.40
67899;DHT22;54699;51.796;10.956;2023-05-16T06:34:14;23.80;43.50
67899;DHT22;54699;51.796;10.956;2023-05-16T06:36:41;23.70;42.70
67899;DHT22;54699;51.796;10.956;2023-05-16T06:39:11;23.80;42.90
67899;DHT22;54699;51.796;10.956;2023-05-16T06:41:41;23.70;44.20
67899;DHT22;54699;51.796;10.956;2023-05-16T06:44:08;23.80;44.70
67899;DHT22;54699;51.796;10.956;2023-05-16T06:46:35;23.80;42.40
67899;DHT22;54699;51.796;10.956;2023-05-16T06:49:04;23.80;42.70
67899;DHT22;54699;51.796;10.956;2023-05-16T06:51:33;23.80;42.40
67899;DHT22;54699;51.796;10.956;2023-05-16T06:54:00;23.80;42.20
67899;DHT22;54699;51.796;10.956;2023-05-16T06:56:27;23.80;42.60
67899;DHT22;54699;51.796;10.956;2023-05-16T06:58:56;23.80;42.70
67899;DHT22;54699;51.796;10.956;2023-05-16T07:01:25;23.80;43.10
67899;DHT22;54699;51.796;10.956;2023-05-16T07:03:53;23.90;44.20
67899;DHT22;54699;51.796;10.956;2023-05-16T07:06:21;23.90;42.60
67899;DHT22;54699;51.796;10.956;2023-05-16T07:08:49;23.80;42.10
67899;DHT22;54699;51.796;10.956;2023-05-16T07:11:15;23.80;42.40
67899;DHT22;54699;51.796;10.956;2023-05-16T07:13:42;23.90;42.40
67899;DHT22;54699;51.796;10.956;2023-05-16T07:16:09;23.80;42.80
67899;DHT22;54699;51.796;10.956;2023-05-16T07:18:36;23.80;42.00
67899;DHT22;54699;51.796;10.956;2023-05-16T07:21:03;23.80;42.70
67899;DHT22;54699;51.796;10.956;2023-05-16T07:23:32;23.90;43.60
67899;DHT22;54699;51.796;10.956;2023-05-16T07:25:59;23.80;43.70
67899;DHT22;54699;51.796;10.956;2023-05-16T07:28:26;23.80;44.00
67899;DHT22;54699;51.796;10.956;2023-05-16T07:30:53;23.80;42.40
67899;DHT22;54699;51.796;10.956;2023-05-16T07:33:23;23.80;43.00
67899;DHT22;54699;51.796;10.956;2023-05-16T07:35:51;23.90;42.70
67899;DHT22;54699;51.796;10.956;2023-05-16T07:38:19;23.80;41.40
67899;DHT22;54699;51.796;10.956;2023-05-16T07:40:48;23.90;42.20
67899;DHT22;54699;51.796;10.956;2023-05-16T07:43:15;23.90;42.50
67899;DHT22;54699;51.796;10.956;2023-05-16T07:45:42;23.90;43.80
67899;DHT22;54699;51.796;10.956;2023-05-16T07:48:09;23.80;43.50
67899;DHT22;54699;51.796;10.956;2023-05-16T07:50:36;23.80;43.80
67899;DHT22;54699;51.796;10.956;2023-05-16T07:53:03;23.70;42.50
67899;DHT22;54699;51.796;10.956;2023-05-16T07:55:30;23.80;41.30
67899;DHT22;54699;51.796;10.956;2023-05-16T07:57:58;23.70;40.80
67899;DHT22;54699;51.796;10.956;2023-05-16T08:00:25;23.80;41.30
67899;DHT22;54699;51.796;10.956;2023-05-16T08:02:52;23.80;41.20
67899;DHT22;54699;51.796;10.956;2023-05-16T08:05:19;23.80;41.70
67899;DHT22;54699;51.796;10.956;2023-05-16T08:07:48;23.80;41.90
67899;DHT22;54699;51.796;10.956;2023-05-16T08:10:15;23.90;41.00
67899;DHT22;54699;51.796;10.956;2023-05-16T08:12:42;23.90;41.40
67899;DHT22;54699;51.796;10.956;2023-05-16T08:15:12;23.90;40.20
67899;DHT22;54699;51.796;10.956;2023-05-16T08:17:39;23.80;39.90
67899;DHT22;54699;51.796;10.956;2023-05-16T08:20:06;23.90;40.10
67899;DHT22;54699;51.796;10.956;2023-05-16T08:22:33;23.90;39.90
67899;DHT22;54699;51.796;10.956;2023-05-16T08:25:00;23.80;40.60
67899;DHT22;54699;51.796;10.956;2023-05-16T08:27:30;23.80;40.40
67899;DHT22;54699;51.796;10.956;2023-05-16T08:29:57;23.80;40.30
67899;DHT22;54699;51.796;10.956;2023-05-16T08:32:25;23.90;40.70
67899;DHT22;54699;51.796;10.956;2023-05-16T08:34:55;23.80;42.20
67899;DHT22;54699;51.796;10.956;2023-05-16T08:37:23;23.80;40.20
67899;DHT22;54699;51.796;10.956;2023-05-16T08:39:50;23.90;39.80
67899;DHT22;54699;51.796;10.956;2023-05-16T08:42:17;23.90;40.40
67899;DHT22;54699;51.796;10.956;2023-05-16T08:44:44;23.80;38.90
67899;DHT22;54699;51.796;10.956;2023-05-16T08:47:15;23.90;39.50
67899;DHT22;54699;51.796;10.956;2023-05-16T08:49:47;23.80;41.20
67899;DHT22;54699;51.796;10.956;2023-05-16T08:52:17;23.90;39.40
67899;DHT22;54699;51.796;10.956;2023-05-16T08:54:46;23.80;38.50
67899;DHT22;54699;51.796;10.956;2023-05-16T08:57:15;23.60;38.10
67899;DHT22;54699;51.796;10.956;2023-05-16T08:59:42;23.70;38.30
67899;DHT22;54699;51.796;10.956;2023-05-16T09:02:10;23.90;38.40
67899;DHT22;54699;51.796;10.956;2023-05-16T09:04:37;24.00;37.80
67899;DHT22;54699;51.796;10.956;2023-05-16T09:07:08;24.00;37.40
67899;DHT22;54699;51.796;10.956;2023-05-16T09:09:35;24.10;37.90
67899;DHT22;54699;51.796;10.956;2023-05-16T09:12:08;24.10;37.40
67899;DHT22;54699;51.796;10.956;2023-05-16T09:14:38;24.10;37.30
67899;DHT22;54699;51.796;10.956;2023-05-16T09:17:05;24.10;37.40
67899;DHT22;54699;51.796;10.956;2023-05-16T09:19:36;24.10;37.30
67899;DHT22;54699;51.796;10.956;2023-05-16T09:22:12;24.20;37.10
67899;DHT22;54699;51.796;10.956;2023-05-16T09:24:40;24.20;37.00
67899;DHT22;54699;51.796;10.956;2023-05-16T09:27:08;24.20;37.00
67899;DHT22;54699;51.796;10.956;2023-05-16T09:29:36;24.30;37.00
67899;DHT22;54699;51.796;10.956;2023-05-16T09:32:16;24.20;36.90
67899;DHT22;54699;51.796;10.956;2023-05-16T09:34:45;24.40;36.80
67899;DHT22;54699;51.796;10.956;2023-05-16T09:37:18;24.40;36.30
67899;DHT22;54699;51.796;10.956;2023-05-16T09:39:48;24.30;36.80
67899;DHT22;54699;51.796;10.956;2023-05-16T09:42:19;24.40;37.00
67899;DHT22;54699;51.796;10.956;2023-05-16T09:44:48;24.20;36.70
67899;DHT22;54699;51.796;10.956;2023-05-16T09:47:30;24.20;36.90
67899;DHT22;54699;51.796;10.956;2023-05-16T09:49:59;24.30;35.90
67899;DHT22;54699;51.796;10.956;2023-05-16T09:52:28;24.20;35.50
67899;DHT22;54699;51.796;10.956;2023-05-16T09:54:55;24.10;35.20
67899;DHT22;54699;51.796;10.956;2023-05-16T09:57:22;24.10;35.10
67899;DHT22;54699;51.796;10.956;2023-05-16T09:59:51;24.10;35.30
67899;DHT22;54699;51.796;10.956;2023-05-16T10:02:18;24.20;35.20
67899;DHT22;54699;51.796;10.956;2023-05-16T10:04:45;24.10;34.80
67899;DHT22;54699;51.796;10.956;2023-05-16T10:07:12;24.20;34.40
67899;DHT22;54699;51.796;10.956;2023-05-16T10:09:42;24.10;34.50
67899;DHT22;54699;51.796;10.956;2023-05-16T10:12:09;24.10;34.10
67899;DHT22;54699;51.796;10.956;2023-05-16T10:14:38;24.10;34.00
67899;DHT22;54699;51.796;10.956;2023-05-16T10:17:11;24.10;34.30
67899;DHT22;54699;51.796;10.956;2023-05-16T10:19:41;24.10;34.00
67899;DHT22;54699;51.796;10.956;2023-05-16T10:22:08;24.10;33.80
67899;DHT22;54699;51.796;10.956;2023-05-16T10:24:42;24.10;33.90
67899;DHT22;54699;51.796;10.956;2023-05-16T10:27:13;24.10;33.90
67899;DHT22;54699;51.796;10.956;2023-05-16T10:29:41;24.10;34.10
67899;DHT22;54699;51.796;10.956;2023-05-16T10:32:10;24.20;34.60
67899;DHT22;54699;51.796;10.956;2023-05-16T10:34:39;24.20;33.50
67899;DHT22;54699;51.796;10.956;2023-05-16T10:37:07;24.20;33.30
67899;DHT22;54699;51.796;10.956;2023-05-16T10:39:35;24.10;34.10
67899;DHT22;54699;51.796;10.956;2023-05-16T10:42:05;24.10;33.40
67899;DHT22;54699;51.796;10.956;2023-05-16T10:44:33;24.10;33.20
67899;DHT22;54699;51.796;10.956;2023-05-16T10:47:00;24.10;33.30
67899;DHT22;54699;51.796;10.956;2023-05-16T10:49:29;24.10;33.00
67899;DHT22;54699;51.796;10.956;2023-05-16T10:52:04;24.00;32.70
67899;DHT22;54699;51.796;10.956;2023-05-16T10:54:35;24.30;32.50
67899;DHT22;54699;51.796;10.956;2023-05-16T10:57:05;24.20;32.40
67899;DHT22;54699;51.796;10.956;2023-05-16T10:59:41;24.20;32.50
67899;DHT22;54699;51.796;10.956;2023-05-16T11:05:01;24.40;32.60
67899;DHT22;54699;51.796;10.956;2023-05-16T11:07:29;24.40;32.60
67899;DHT22;54699;51.796;10.956;2023-05-16T11:10:02;24.40;31.90
67899;DHT22;54699;51.796;10.956;2023-05-16T11:12:43;24.40;31.90
67899;DHT22;54699;51.796;10.956;2023-05-16T11:15:20;24.50;32.50
67899;DHT22;54699;51.796;10.956;2023-05-16T11:17:50;24.30;32.10
67899;DHT22;54699;51.796;10.956;2023-05-16T11:20:30;24.40;32.20
67899;DHT22;54699;51.796;10.956;2023-05-16T11:25:48;24.40;31.90
67899;DHT22;54699;51.796;10.956;2023-05-16T11:28:19;24.50;31.90
67899;DHT22;54699;51.796;10.956;2023-05-16T11:30:47;24.50;31.70
67899;DHT22;54699;51.796;10.956;2023-05-16T11:33:15;24.50;31.90
67899;DHT22;54699;51.796;10.956;2023-05-16T11:35:43;24.40;31.70
67899;DHT22;54699;51.796;10.956;2023-05-16T11:38:25;24.60;31.70
67899;DHT22;54699;51.796;10.956;2023-05-16T11:40:52;24.60;31.90
67899;DHT22;54699;51.796;10.956;2023-05-16T11:43:20;24.60;30.70
67899;DHT22;54699;51.796;10.956;2023-05-16T11:45:52;24.70;31.10
67899;DHT22;54699;51.796;10.956;2023-05-16T11:48:22;24.40;30.90
67899;DHT22;54699;51.796;10.956;2023-05-16T11:50:49;24.40;31.30
67899;DHT22;54699;51.796;10.956;2023-05-16T11:53:17;24.50;31.60
67899;DHT22;54699;51.796;10.956;2023-05-16T11:55:46;24.60;31.50
67899;DHT22;54699;51.796;10.956;2023-05-16T11:58:17;24.70;31.10
67899;DHT22;54699;51.796;10.956;2023-05-16T12:00:49;24.70;31.10
67899;DHT22;54699;51.796;10.956;2023-05-16T12:03:18;24.80;31.80
67899;DHT22;54699;51.796;10.956;2023-05-16T12:05:51;24.80;32.20
67899;DHT22;54699;51.796;10.956;2023-05-16T12:08:19;24.80;32.50
67899;DHT22;54699;51.796;10.956;2023-05-16T12:10:48;24.90;32.60
67899;DHT22;54699;51.796;10.956;2023-05-16T12:13:16;24.90;32.60
67899;DHT22;54699;51.796;10.956;2023-05-16T12:15:43;25.00;32.60
67899;DHT22;54699;51.796;10.956;2023-05-16T12:18:14;25.00;32.70
67899;DHT22;54699;51.796;10.956;2023-05-16T12:20:42;25.00;32.70
67899;DHT22;54699;51.796;10.956;2023-05-16T12:23:10;25.10;32.70
67899;DHT22;54699;51.796;10.956;2023-05-16T12:25:38;25.20;32.90
67899;DHT22;54699;51.796;10.956;2023-05-16T12:28:08;25.10;33.10
67899;DHT22;54699;51.796;10.956;2023-05-16T12:30:38;25.20;33.10
67899;DHT22;54699;51.796;10.956;2023-05-16T12:33:07;25.20;33.20
67899;DHT22;54699;51.796;10.956;2023-05-16T12:35:38;25.20;33.10
67899;DHT22;54699;51.796;10.956;2023-05-16T12:38:06;25.20;33.10
67899;DHT22;54699;51.796;10.956;2023-05-16T12:40:35;25.20;33.10
67899;DHT22;54699;51.796;10.956;2023-05-16T12:43:04;25.30;33.00
67899;DHT22;54699;51.796;10.956;2023-05-16T12:45:32;25.30;32.80
67899;DHT22;54699;51.796;10.956;2023-05-16T12:48:03;25.30;33.00
67899;DHT22;54699;51.796;10.956;2023-05-16T12:50:30;25.40;33.10
67899;DHT22;54699;51.796;10.956;2023-05-16T12:53:00;25.50;33.40
67899;DHT22;54699;51.796;10.956;2023-05-16T12:55:27;25.50;32.80
67899;DHT22;54699;51.796;10.956;2023-05-16T12:57:54;25.40;32.80
67899;DHT22;54699;51.796;10.956;2023-05-16T13:00:22;25.50;33.90
67899;DHT22;54699;51.796;10.956;2023-05-16T13:02:49;25.40;33.20
67899;DHT22;54699;51.796;10.956;2023-05-16T13:05:16;25.50;33.70
67899;DHT22;54699;51.796;10.956;2023-05-16T13:07:44;25.50;33.50
67899;DHT22;54699;51.796;10.956;2023-05-16T13:10:13;25.60;35.60
67899;DHT22;54699;51.796;10.956;2023-05-16T13:12:40;25.60;34.10
67899;DHT22;54699;51.796;10.956;2023-05-16T13:15:07;25.60;35.10
67899;DHT22;54699;51.796;10.956;2023-05-16T13:17:37;25.70;37.50
67899;DHT22;54699;51.796;10.956;2023-05-16T13:20:05;25.70;37.20
67899;DHT22;54699;51.796;10.956;2023-05-16T13:22:34;25.80;37.50
67899;DHT22;54699;51.796;10.956;2023-05-16T13:25:01;26.00;37.40
67899;DHT22;54699;51.796;10.956;2023-05-16T13:27:31;25.90;36.90
67899;DHT22;54699;51.796;10.956;2023-05-16T13:29:58;26.10;37.60
67899;DHT22;54699;51.796;10.956;2023-05-16T13:32:25;26.10;38.00
67899;DHT22;54699;51.796;10.956;2023-05-16T13:34:52;25.90;37.60
67899;DHT22;54699;51.796;10.956;2023-05-16T13:37:22;25.90;37.00
67899;DHT22;54699;51.796;10.956;2023-05-16T13:39:49;26.00;38.70
67899;DHT22;54699;51.796;10.956;2023-05-16T13:42:16;26.00;39.10
67899;DHT22;54699;51.796;10.956;2023-05-16T13:44:45;26.00;39.90
67899;DHT22;54699;51.796;10.956;2023-05-16T13:47:11;26.00;39.50
67899;DHT22;54699;51.796;10.956;2023-05-16T13:49:38;26.10;39.20
67899;DHT22;54699;51.796;10.956;2023-05-16T13:52:05;26.10;38.70
67899;DHT22;54699;51.796;10.956;2023-05-16T13:54:32;26.10;38.50
67899;DHT22;54699;51.796;10.956;2023-05-16T13:56:59;26.20;38.60
67899;DHT22;54699;51.796;10.956;2023-05-16T13:59:28;26.20;38.40
67899;DHT22;54699;51.796;10.956;2023-05-16T14:01:56;26.00;38.60
67899;DHT22;54699;51.796;10.956;2023-05-16T14:04:23;25.90;38.40
67899;DHT22;54699;51.796;10.956;2023-05-16T14:06:51;25.90;38.10
67899;DHT22;54699;51.796;10.956;2023-05-16T14:09:18;25.90;38.90
67899;DHT22;54699;51.796;10.956;2023-05-16T14:11:46;26.00;39.60
67899;DHT22;54699;51.796;10.956;2023-05-16T14:14:13;25.90;39.20
67899;DHT22;54699;51.796;10.956;2023-05-16T14:16:40;26.00;39.90
67899;DHT22;54699;51.796;10.956;2023-05-16T14:19:11;26.00;40.00
67899;DHT22;54699;51.796;10.956;2023-05-16T14:21:38;25.90;40.00
67899;DHT22;54699;51.796;10.956;2023-05-16T14:24:06;25.90;40.30
67899;DHT22;54699;51.796;10.956;2023-05-16T14:26:33;25.90;40.50
67899;DHT22;54699;51.796;10.956;2023-05-16T14:29:00;25.90;40.40
67899;DHT22;54699;51.796;10.956;2023-05-16T14:31:27;25.90;40.50
67899;DHT22;54699;51.796;10.956;2023-05-16T14:33:54;25.80;40.50
67899;DHT22;54699;51.796;10.956;2023-05-16T14:36:23;25.90;40.60
67899;DHT22;54699;51.796;10.956;2023-05-16T14:38:50;25.80;40.70
67899;DHT22;54699;51.796;10.956;2023-05-16T14:41:17;25.70;40.90
67899;DHT22;54699;51.796;10.956;2023-05-16T14:43:49;25.70;41.00
67899;DHT22;54699;51.796;10.956;2023-05-16T14:46:17;25.70;41.30
67899;DHT22;54699;51.796;10.956;2023-05-16T14:48:44;25.60;41.30
67899;DHT22;54699;51.796;10.956;2023-05-16T14:51:11;25.60;41.80
67899;DHT22;54699;51.796;10.956;2023-05-16T14:53:39;25.60;41.90
67899;DHT22;54699;51.796;10.956;2023-05-16T14:56:07;25.60;41.90
67899;DHT22;54699;51.796;10.956;2023-05-16T14:58:34;25.60;42.20
67899;DHT22;54699;51.796;10.956;2023-05-16T15:01:01;25.60;42.30
67899;DHT22;54699;51.796;10.956;2023-05-16T15:03:28;25.50;42.60
67899;DHT22;54699;51.796;10.956;2023-05-16T15:05:57;25.50;42.60
67899;DHT22;54699;51.796;10.956;2023-05-16T15:08:24;25.50;42.80
67899;DHT22;54699;51.796;10.956;2023-05-16T15:10:53;25.40;42.90
67899;DHT22;54699;51.796;10.956;2023-05-16T15:13:20;25.30;42.70
67899;DHT22;54699;51.796;10.956;2023-05-16T15:15:47;25.30;43.30
67899;DHT22;54699;51.796;10.956;2023-05-16T15:18:13;25.20;43.60
67899;DHT22;54699;51.796;10.956;2023-05-16T15:20:40;25.20;43.90
67899;DHT22;54699;51.796;10.956;2023-05-16T15:23:07;25.10;43.60
67899;DHT22;54699;51.796;10.956;2023-05-16T15:25:34;25.10;43.50
67899;DHT22;54699;51.796;10.956;2023-05-16T15:28:03;25.00;43.90